createdAt,value
2023-01-26T00:32:59.453Z,34.60
2023-01-26T00:35:28.939Z,35.40
2023-01-26T00:37:58.391Z,35.90
2023-01-26T00:40:28.444Z,36.70
2023-01-26T00:42:58.323Z,35.80
2023-01-26T00:45:27.901Z,36.50
2023-01-26T00:47:57.387Z,34.60
2023-01-26T00:50:26.789Z,35.60
2023-01-26T00:52:56.740Z,36.10
2023-01-26T00:55:26.529Z,35.40
2023-01-26T00:57:56.070Z,35.40
2023-01-26T01:00:26.236Z,35.60
2023-01-26T01:02:57.828Z,34.80
2023-01-26T01:05:28.294Z,34.60
2023-01-26T01:07:57.960Z,34.10
2023-01-26T01:10:30.523Z,33.60
2023-01-26T01:12:59.990Z,34.40
2023-01-26T01:15:29.409Z,34.00
2023-01-26T01:17:59.266Z,33.60
2023-01-26T01:20:29.116Z,35.00
2023-01-26T01:22:58.551Z,32.80
2023-01-26T01:25:28.014Z,32.90
2023-01-26T01:27:57.544Z,33.50
2023-01-26T01:30:26.984Z,33.80
2023-01-26T06:33:53.345Z,29.50
2023-01-26T06:36:23.765Z,29.80
2023-01-26T06:38:59.171Z,30.00
2023-01-26T06:41:30.347Z,30.20
2023-01-26T06:43:59.808Z,30.60
2023-01-26T06:46:30.371Z,30.70
2023-01-26T06:49:00.470Z,31.30
2023-01-26T06:51:43.584Z,31.70
2023-01-26T06:54:14.488Z,31.70
2023-01-26T06:56:44.056Z,31.90
2023-01-26T06:59:13.915Z,32.40
2023-01-26T07:01:46.231Z,31.90
2023-01-26T07:04:16.067Z,31.50
2023-01-26T07:06:45.497Z,31.70
2023-01-26T07:09:15.034Z,31.90
2023-01-26T07:11:44.872Z,31.70
2023-01-26T07:14:14.250Z,32.30
2023-01-26T07:16:43.665Z,32.20
2023-01-26T07:19:13.532Z,32.10
2023-01-26T07:21:42.990Z,32.00
2023-01-26T07:24:12.503Z,32.00
2023-01-26T07:26:42.389Z,31.60
2023-01-26T07:29:12.846Z,31.90
2023-01-26T07:31:43.702Z,30.70
2023-01-26T08:06:55.557Z,43.80
2023-01-26T08:09:26.375Z,44.70
2023-01-26T08:11:58.841Z,45.70
2023-01-26T08:14:41.595Z,46.50
2023-01-26T08:17:15.616Z,47.20
2023-01-26T08:19:45.300Z,47.80
2023-01-26T08:22:14.717Z,48.30
2023-01-26T08:24:44.201Z,49.30
2023-01-26T08:27:13.639Z,49.70
2023-01-26T08:29:43.027Z,50.40
2023-01-26T08:32:12.562Z,50.60
2023-01-26T08:34:42.028Z,50.80
2023-01-26T08:37:11.482Z,51.10
2023-01-26T08:39:40.903Z,51.50
2023-01-26T08:42:10.722Z,51.80
2023-01-26T08:44:40.119Z,52.10
2023-01-26T08:47:09.516Z,52.20
2023-01-26T08:49:38.915Z,52.40
2023-01-26T08:52:08.377Z,52.80
2023-01-26T08:54:38.592Z,53.10
2023-01-26T08:57:08.640Z,53.50
2023-01-26T08:59:38.204Z,53.50
2023-01-26T09:02:08.401Z,53.80
2023-01-26T09:04:38.148Z,54.00
2023-01-26T09:07:08.879Z,54.30
2023-01-26T09:09:38.460Z,55.10
2023-01-26T09:12:08.040Z,54.80
2023-01-26T09:14:37.862Z,54.90
2023-01-26T09:17:08.622Z,55.90
2023-01-26T09:19:38.437Z,55.70
2023-01-26T09:22:08.474Z,56.00
2023-01-26T09:24:37.885Z,56.30
2023-01-26T09:27:07.289Z,56.40
2023-01-26T09:29:36.869Z,56.40
2023-01-26T09:32:06.356Z,56.70
2023-01-26T09:34:36.853Z,56.90
2023-01-26T09:37:08.527Z,57.00
2023-01-26T09:39:37.957Z,57.10
2023-01-26T09:42:13.932Z,57.80
2023-01-26T09:44:48.170Z,57.80
2023-01-26T09:47:27.168Z,58.10
2023-01-26T09:50:00.742Z,58.50
2023-01-26T09:52:33.477Z,58.80
2023-01-26T09:55:05.360Z,59.00
2023-01-26T09:57:50.499Z,59.10
2023-01-26T10:00:34.688Z,59.40
2023-01-26T10:03:04.140Z,59.60
2023-01-26T10:05:46.752Z,59.60
2023-01-26T10:08:17.746Z,59.70
2023-01-26T10:10:51.941Z,59.90
2023-01-26T10:13:23.094Z,60.40
2023-01-26T10:15:55.244Z,60.10
2023-01-26T10:18:29.898Z,60.80
2023-01-26T10:21:01.050Z,61.10
2023-01-26T10:23:31.954Z,61.40
2023-01-26T10:26:27.402Z,61.70
2023-01-26T10:28:57.306Z,61.80
2023-01-26T10:31:32.192Z,61.60
2023-01-26T10:34:02.899Z,62.30
2023-01-26T10:36:33.569Z,62.60
2023-01-26T10:39:10.344Z,62.90
2023-01-26T10:41:42.834Z,62.90
2023-01-26T10:44:12.777Z,63.10
2023-01-26T10:46:43.358Z,62.50
2023-01-26T10:49:19.622Z,63.10
2023-01-26T10:52:07.202Z,63.00
2023-01-26T10:54:38.698Z,63.00
2023-01-26T10:57:29.341Z,63.00
2023-01-26T10:59:58.782Z,63.70
2023-01-26T11:02:29.876Z,63.70
2023-01-26T11:05:16.661Z,64.20
2023-01-26T11:07:48.130Z,64.30
2023-01-26T11:10:20.659Z,64.40
2023-01-26T11:12:51.775Z,64.10
2023-01-26T11:15:25.647Z,64.40
2023-01-26T11:17:59.500Z,64.30
2023-01-26T11:20:47.361Z,64.00
2023-01-26T11:23:22.793Z,64.30
2023-01-26T11:25:58.388Z,64.40
2023-01-26T11:28:27.793Z,64.10
2023-01-26T11:31:05.825Z,64.90
2023-01-26T11:34:01.403Z,64.50
2023-01-26T11:36:31.015Z,64.40
2023-01-26T11:39:00.419Z,64.30
2023-01-26T11:41:37.881Z,64.70
2023-01-26T11:44:10.052Z,64.50
2023-01-26T11:46:43.646Z,64.40
2023-01-26T11:49:12.993Z,64.80
2023-01-26T11:52:08.226Z,65.30
2023-01-26T11:54:47.392Z,65.20
2023-01-26T11:57:21.483Z,64.80
2023-01-26T11:59:55.925Z,64.90
2023-01-26T12:02:35.291Z,65.20
2023-01-26T12:05:25.155Z,65.30
2023-01-26T12:19:09.873Z,66.00
2023-01-26T12:21:42.095Z,65.80
2023-01-26T12:24:36.031Z,66.30
2023-01-26T12:27:06.068Z,66.30
2023-01-26T12:29:44.146Z,66.70
2023-01-26T12:32:15.701Z,66.70
2023-01-26T12:34:45.233Z,66.80
2023-01-26T12:37:37.328Z,66.80
2023-01-26T12:40:12.863Z,66.70
2023-01-26T12:42:45.079Z,66.40
2023-01-26T12:45:18.446Z,65.90
2023-01-26T12:47:54.808Z,66.40
2023-01-26T12:50:28.572Z,66.50
2023-01-26T12:53:02.583Z,66.50
2023-01-26T12:55:35.050Z,66.30
2023-01-26T12:58:13.602Z,66.70
2023-01-26T13:00:43.157Z,66.40
2023-01-26T13:03:25.371Z,66.70
2023-01-26T13:06:03.198Z,66.40
2023-01-26T13:08:32.582Z,66.40
2023-01-26T13:11:02.984Z,66.40
2023-01-26T13:13:32.876Z,66.80
2023-01-26T13:16:21.564Z,66.60
2023-01-26T13:28:06.259Z,66.80
2023-01-26T13:30:41.403Z,67.00
2023-01-26T13:33:16.996Z,66.80
2023-01-26T13:35:47.479Z,67.20
2023-01-26T13:38:37.309Z,67.60
2023-01-26T13:41:11.951Z,67.60
2023-01-26T13:43:46.499Z,67.40
2023-01-26T13:46:15.894Z,67.70
2023-01-26T13:48:48.812Z,67.50
2023-01-26T13:51:19.760Z,67.30
2023-01-26T13:54:01.733Z,67.20
2023-01-26T13:56:34.059Z,67.70
2023-01-26T13:59:14.691Z,67.40
2023-01-26T14:01:49.499Z,67.20
2023-01-26T14:04:22.153Z,67.10
2023-01-26T14:07:06.473Z,68.00
2023-01-26T14:09:37.695Z,67.90
2023-01-26T14:12:07.874Z,68.10
2023-01-26T14:14:38.855Z,67.70
2023-01-26T14:17:26.511Z,67.40
2023-01-26T14:19:56.429Z,67.80
2023-01-26T14:22:25.875Z,67.60
2023-01-26T14:24:56.460Z,67.60
2023-01-26T14:40:24.319Z,68.10
2023-01-26T14:42:55.167Z,67.70
2023-01-26T14:45:32.538Z,67.60
2023-01-26T14:48:09.041Z,67.60
2023-01-26T14:50:40.121Z,67.90
2023-01-26T14:53:21.231Z,68.70
2023-01-26T14:55:52.642Z,68.30
2023-01-26T14:58:25.294Z,68.10
2023-01-26T15:00:55.014Z,68.30
2023-01-26T15:03:28.013Z,68.20
2023-01-26T15:06:20.435Z,68.40
2023-01-26T15:09:15.695Z,68.50
2023-01-26T15:12:04.515Z,68.50
2023-01-26T15:14:35.560Z,68.90
2023-01-26T15:17:05.687Z,68.60
2023-01-26T15:19:42.842Z,68.80
2023-01-26T15:22:22.363Z,68.70
2023-01-26T15:25:23.859Z,68.60
2023-01-26T15:27:55.195Z,68.80
2023-01-26T15:30:32.768Z,68.50
2023-01-26T15:33:02.481Z,68.50
2023-01-26T15:35:36.279Z,68.40
2023-01-26T15:38:12.744Z,68.60
2023-01-26T15:40:42.156Z,68.60
2023-01-26T15:43:15.324Z,68.70
2023-01-26T15:45:51.037Z,68.70
2023-01-26T15:48:21.284Z,68.70
2023-01-26T15:50:51.168Z,68.60
2023-01-26T15:53:22.249Z,68.40
2023-01-26T15:55:54.439Z,68.60
2023-01-26T15:58:24.566Z,69.00
2023-01-26T16:00:54.903Z,69.20
2023-01-26T16:03:25.366Z,69.20
2023-01-26T16:05:54.947Z,69.10
2023-01-26T16:08:24.720Z,69.50
2023-01-26T16:46:54.455Z,69.40
2023-01-26T16:49:23.904Z,69.50
2023-01-26T16:51:53.312Z,69.50
2023-01-26T16:54:23.131Z,69.80
2023-01-26T16:56:53.587Z,69.60
2023-01-26T16:59:23.454Z,69.60
2023-01-26T17:01:52.960Z,69.80
2023-01-26T17:04:22.766Z,70.20
2023-01-26T17:06:52.324Z,70.40
2023-01-26T17:09:22.834Z,70.10
2023-01-26T17:11:53.409Z,69.70
2023-01-26T17:14:22.877Z,69.90
2023-01-26T17:16:53.509Z,69.50
2023-01-26T17:19:25.491Z,69.70
2023-01-26T17:21:55.459Z,70.00
2023-01-26T17:24:24.959Z,69.90
2023-01-26T17:26:55.487Z,70.20
2023-01-26T17:29:24.895Z,70.30
2023-01-26T17:31:54.338Z,70.10
2023-01-26T17:34:24.020Z,70.20
2023-01-26T17:36:53.439Z,70.10
2023-01-26T17:39:22.842Z,70.20
2023-01-26T17:41:52.304Z,70.20
2023-01-26T17:44:23.135Z,70.20
2023-01-26T17:56:56.784Z,69.90
2023-01-26T17:59:27.345Z,69.70
2023-01-26T18:01:56.902Z,69.50
2023-01-26T18:04:26.697Z,70.00
2023-01-26T18:06:56.093Z,69.80
2023-01-26T18:09:25.627Z,69.50
2023-01-26T18:11:55.064Z,69.50
2023-01-26T18:14:24.591Z,70.00
2023-01-26T18:16:54.175Z,69.90
2023-01-26T18:19:24.754Z,69.80
2023-01-26T18:21:54.578Z,70.10
2023-01-26T18:24:24.483Z,70.20
2023-01-26T18:26:54.348Z,69.80
2023-01-26T18:29:23.743Z,70.20
2023-01-26T18:31:53.782Z,70.00
2023-01-26T18:34:23.613Z,70.10
2023-01-26T18:36:53.034Z,70.10
2023-01-26T18:39:22.839Z,70.00
2023-01-26T18:41:52.659Z,70.40
2023-01-26T18:44:27.123Z,70.20
2023-01-26T18:46:56.704Z,69.80
2023-01-26T18:49:27.119Z,69.90
2023-01-26T18:51:57.761Z,69.80
2023-01-26T18:54:28.242Z,70.00
2023-01-26T20:05:17.358Z,69.60
2023-01-26T20:07:46.966Z,69.70
2023-01-26T20:10:16.784Z,69.90
2023-01-26T20:12:46.691Z,70.10
2023-01-26T20:15:16.591Z,70.00
2023-01-26T20:17:46.216Z,69.70
2023-01-26T20:20:15.660Z,69.70
2023-01-26T20:22:45.036Z,70.00
2023-01-26T20:25:14.852Z,70.10
2023-01-26T20:27:44.266Z,70.60
2023-01-26T20:30:14.765Z,70.20
2023-01-26T20:32:44.423Z,70.10
2023-01-26T20:35:15.236Z,70.40
2023-01-26T20:37:44.665Z,70.30
2023-01-26T20:40:15.002Z,70.30
2023-01-26T20:42:44.599Z,70.20
2023-01-26T20:45:15.901Z,70.10
2023-01-26T20:47:45.476Z,69.90
2023-01-26T20:50:15.327Z,69.90
2023-01-26T20:52:45.535Z,70.00
2023-01-26T20:55:14.969Z,70.50
2023-01-26T20:57:44.802Z,70.20
2023-01-26T21:00:15.266Z,69.80
2023-01-26T21:02:45.815Z,69.90
2023-01-26T21:05:16.438Z,69.70
2023-01-26T21:07:46.268Z,69.50
2023-01-26T21:10:15.845Z,69.50
2023-01-26T21:12:47.046Z,69.30
2023-01-26T21:15:16.492Z,69.40
2023-01-26T21:17:45.874Z,69.30
2023-01-26T21:20:15.828Z,69.60
2023-01-26T21:22:45.745Z,69.50
2023-01-26T21:25:15.718Z,69.70
2023-01-26T21:27:45.126Z,69.70
2023-01-26T21:30:16.025Z,69.20
2023-01-26T21:32:45.834Z,69.50
2023-01-26T21:35:17.631Z,69.50
2023-01-26T21:37:47.051Z,69.60
2023-01-26T21:40:16.436Z,69.40
2023-01-26T21:42:46.391Z,69.20
2023-01-26T21:45:35.023Z,69.00
2023-01-26T21:48:23.147Z,69.40
2023-01-26T21:51:11.053Z,69.50
2023-01-26T21:53:40.647Z,69.30
2023-01-26T21:56:10.081Z,69.10
2023-01-26T21:58:57.613Z,69.50
2023-01-26T22:01:27.318Z,69.50
2023-01-26T22:03:57.489Z,69.40
2023-01-26T22:06:27.393Z,69.20
2023-01-26T22:08:57.170Z,69.00
2023-01-26T22:11:26.881Z,69.10
2023-01-26T22:13:58.802Z,68.90
2023-01-26T22:16:29.174Z,68.90
2023-01-26T22:18:58.733Z,68.60
2023-01-26T22:21:28.562Z,68.70
